sensor_id;sensor_type;location;lat;lon;timestamp;pressure;altitude;pressure_sealevel;temperature;humidity
71642;BME280;60657;50.122;14.468;2023-06-19T00:00:42;98069.6424784986;;;21.403067063401238;53.98130769817654
71642;BME280;60657;50.122;14.468;2023-06-19T00:03:58;98062.79623823838;;;21.3736934462501;54.15487907225147
71642;BME280;60657;50.122;14.468;2023-06-19T00:07:14;98065.13354320938;;;21.234836346990164;54.862516212710766
71642;BME280;60657;50.122;14.468;2023-06-19T00:10:29;98058.83189482425;;;21.309605554283976;54.8129243915465
71642;BME280;60657;50.122;14.468;2023-06-19T00:13:45;98056.77018803931;;;21.38437476157779;54.91210803387503
71642;BME280;60657;50.122;14.468;2023-06-19T00:17:01;98069.22255852634;;;21.445792324711988;54.627908751049056
71642;BME280;60657;50.122;14.468;2023-06-19T00:20:17;98061.15460859294;;;21.363012130922414;54.98077363241016
71642;BME280;60657;50.122;14.468;2023-06-19T00:23:33;98067.58091656753;;;21.437781338216226;54.91020065613794
71642;BME280;60657;50.122;14.468;2023-06-19T00:26:49;98067.44026681547;;;21.421759365224688;54.87777523460746
71642;BME280;60657;50.122;14.468;2023-06-19T00:30:05;98057.5378495843;;;21.20813305867094;55.833371480888076
71642;BME280;60657;50.122;14.468;2023-06-19T00:33:21;98063.21458780473;;;21.24551766231785;55.37941557946136
71642;BME280;60657;50.122;14.468;2023-06-19T00:36:38;98058.21992953807;;;21.3015945677882;54.66414892805371
71642;BME280;60657;50.122;14.468;2023-06-19T00:39:53;98049.66357595279;;;21.30693522545205;53.491111619745176
71642;BME280;60657;50.122;14.468;2023-06-19T00:43:09;98049.2429862805;;;21.3736934462501;53.75623712520027
71642;BME280;60657;50.122;14.468;2023-06-19T00:46:25;98054.3079424309;;;21.397726405737387;53.788662546730755
71642;BME280;60657;50.122;14.468;2023-06-19T00:49:41;98042.06721660362;;;21.328297856107426;54.01373311970703
71642;BME280;60657;50.122;14.468;2023-06-19T00:52:57;98042.06721660362;;;21.290913252460513;54.1358052948806
71642;BME280;60657;50.122;14.468;2023-06-19T00:56:13;98039.53510124204;;;21.293583581292438;54.49439230945296
71642;BME280;60657;50.122;14.468;2023-06-19T00:59:29;98046.10067455118;;;21.338979171435113;54.589761196307315
71642;BME280;60657;50.122;14.468;2023-06-19T01:02:46;98036.7217778132;;;21.320286869611664;54.9750514991989
71642;BME280;60657;50.122;14.468;2023-06-19T01:06:02;98033.24895380379;;;21.162737468528263;55.1371786068513
71642;BME280;60657;50.122;14.468;2023-06-19T01:09:26;98035.37652796852;;;20.887693598840315;56.617303730830855
71642;BME280;60657;50.122;14.468;2023-06-19T01:12:46;98024.02269959537;;;20.98916609445334;55.55107957579919
71642;BME280;60657;50.122;14.468;2023-06-19T01:16:10;98023.20195158699;;;20.999847409781026;54.5477988860914
71642;BME280;60657;50.122;14.468;2023-06-19T01:19:27;98025.66420569248;;;21.005188067444877;55.08949416342413
71642;BME280;60657;50.122;14.468;2023-06-19T01:22:44;98017.18164427577;;;21.06126497291524;54.254062714579995
71642;BME280;60657;50.122;14.468;2023-06-19T01:25:59;98018.61563879257;;;21.101319905394064;54.79957274738689
71642;BME280;60657;50.122;14.468;2023-06-19T01:29:15;98021.8289511678;;;21.106660563057915;54.74235141527428
71642;BME280;60657;50.122;14.468;2023-06-19T01:32:34;98014.37379627685;;;21.08529793240254;54.91783016708629
71642;BME280;60657;50.122;14.468;2023-06-19T01:35:57;98021.07762712977;;;21.07995727473869;55.04753185320821
71642;BME280;60657;50.122;14.468;2023-06-19T01:39:14;98022.78823560925;;;21.063935301747165;54.99984740978103
71642;BME280;60657;50.122;14.468;2023-06-19T01:42:33;98022.58682534027;;;20.91706721599145;55.73609521629663
71642;BME280;60657;50.122;14.468;2023-06-19T01:45:52;98023.88431582529;;;20.852979324025327;56.04509040970474
71642;BME280;60657;50.122;14.468;2023-06-19T01:49:08;98019.22947858415;;;20.77553978789959;56.49904631113146
71642;BME280;60657;50.122;14.468;2023-06-19T01:52:24;98022.42809635763;;;20.703440909437703;56.70313572899977
71642;BME280;60657;50.122;14.468;2023-06-19T01:55:40;98022.89082493202;;;20.59128709849699;57.32494087129015
71642;BME280;60657;50.122;14.468;2023-06-19T01:58:56;98021.1828896102;;;20.553902494850078;57.84374761577783
71642;BME280;60657;50.122;14.468;2023-06-19T02:02:12;98025.35402979467;;;20.52452887769894;57.98489356832227
71642;BME280;60657;50.122;14.468;2023-06-19T02:05:28;98021.11698462379;;;20.489814602883953;58.3778133821622
71642;BME280;60657;50.122;14.468;2023-06-19T02:08:44;98026.63374096908;;;20.342946517128254;58.454108491645684
71642;BME280;60657;50.122;14.468;2023-06-19T02:11:59;98019.5032928013;;;20.28686961165789;58.10505836575875
71642;BME280;60657;50.122;14.468;2023-06-19T02:15:15;98020.90375349695;;;20.252155336842904;58.240482185091935
71642;BME280;60657;50.122;14.468;2023-06-19T02:18:36;98025.77183069297;;;20.113298237582967;58.84702830548562
71642;BME280;60657;50.122;14.468;2023-06-19T02:21:57;98029.94178309508;;;20.075913633936068;59.26283665217059
71642;BME280;60657;50.122;14.468;2023-06-19T02:25:13;98034.80734401429;;;20.05989166094453;58.9366750591287
71642;BME280;60657;50.122;14.468;2023-06-19T02:28:28;98041.43248770542;;;19.86495765621423;60.71244373235676
71642;BME280;60657;50.122;14.468;2023-06-19T02:31:44;98042.16863777177;;;19.670023651483945;61.49828336003662
71642;BME280;60657;50.122;14.468;2023-06-19T02:35:00;98050.10873291046;;;19.584573128862445;61.469672693980314
71642;BME280;60657;50.122;14.468;2023-06-19T02:38:16;98048.76435905004;;;19.483100633249407;61.45059891660945
71642;BME280;60657;50.122;14.468;2023-06-19T02:41:31;98040.18690867521;;;19.531166552224008;61.16830701152057
71642;BME280;60657;50.122;14.468;2023-06-19T02:44:47;98033.43236281245;;;19.54718852521553;60.685740444037535
71642;BME280;60657;50.122;14.468;2023-06-19T02:48:04;98039.76424294064;;;19.65133134966048;60.02197299153124
71642;BME280;60657;50.122;14.468;2023-06-19T02:51:20;98039.64268031428;;;19.73678187228198;59.16556038757916
71642;BME280;60657;50.122;14.468;2023-06-19T02:54:36;98045.97183567837;;;19.814221408407718;59.15602349889372
71642;BME280;60657;50.122;14.468;2023-06-19T02:57:51;98042.78053602579;;;19.330891889829857;61.59937438010223
71642;BME280;60657;50.122;14.468;2023-06-19T03:01:07;98038.84247777362;;;19.464408331425957;61.90836957351034
71642;BME280;60657;50.122;14.468;2023-06-19T03:04:23;98037.20233341315;;;19.224078736552983;62.07049668116274
71642;BME280;60657;50.122;14.468;2023-06-19T03:07:38;98041.42875817504;;;19.253452353704134;62.02090485999848
71642;BME280;60657;50.122;14.468;2023-06-19T03:10:54;98037.37692357831;;;19.245441367208358;62.20401312275884
71642;BME280;60657;50.122;14.468;2023-06-19T03:14:10;98035.50006620046;;;19.354924849317158;60.535057602807655
71642;BME280;60657;50.122;14.468;2023-06-19T03:17:26;98031.09754055805;;;19.394979781795982;60.161211566338594
71642;BME280;60657;50.122;14.468;2023-06-19T03:20:42;98021.82167475221;;;19.376287479972532;60.416800183108265
71642;BME280;60657;50.122;14.468;2023-06-19T03:24:03;98026.04870520046;;;19.34424353398947;60.367208361943995
71642;BME280;60657;50.122;14.468;2023-06-19T03:27:19;98020.88164516121;;;19.445716029602508;60.266117341878385
71642;BME280;60657;50.122;14.468;2023-06-19T03:30:35;98019.17887339104;;;19.419012741283282;60.798275730525674
71642;BME280;60657;50.122;14.468;2023-06-19T03:33:51;98019.11955454647;;;19.43770504310673;60.80018310826276
71642;BME280;60657;50.122;14.468;2023-06-19T03:37:06;98025.04977099238;;;19.408331425955595;60.82688639658198
71642;BME280;60657;50.122;14.468;2023-06-19T03:40:22;98030.27566659776;;;19.365606164644845;60.69909208819715
71642;BME280;60657;50.122;14.468;2023-06-19T03:43:38;98035.55842053585;;;19.354924849317158;60.79255359731441
71642;BME280;60657;50.122;14.468;2023-06-19T03:46:54;98033.8561870978;;;19.34424353398947;61.0290684367132
71642;BME280;60657;50.122;14.468;2023-06-19T03:50:10;98038.1990331722;;;19.445716029602508;60.832608529793234
71642;BME280;60657;50.122;14.468;2023-06-19T03:53:25;98034.61969178717;;;19.346913862821395;60.018158236057076
71642;BME280;60657;50.122;14.468;2023-06-19T03:56:41;98036.61294439166;;;19.314869916838333;60.21461814297703
71642;BME280;60657;50.122;14.468;2023-06-19T03:59:57;98040.54852598706;;;19.413672083619446;60.34431982909895
71642;BME280;60657;50.122;14.468;2023-06-19T04:03:13;98030.8011137935;;;19.32021057450217;60.51598382543679
71642;BME280;60657;50.122;14.468;2023-06-19T04:06:29;98038.14079732537;;;19.384298466468294;60.96231021591515
71642;BME280;60657;50.122;14.468;2023-06-19T04:09:44;98039.48273662753;;;19.229419394216833;61.44869153887235
71642;BME280;60657;50.122;14.468;2023-06-19T04:13:01;98036.76334959961;;;19.077210650797284;62.543526359960325
71642;BME280;60657;50.122;14.468;2023-06-19T04:16:17;98034.35324691185;;;18.98908979934386;63.07377737087053
71642;BME280;60657;50.122;14.468;2023-06-19T04:19:33;98028.31579699632;;;18.95971618219272;63.82719157701992
71642;BME280;60657;50.122;14.468;2023-06-19T04:22:48;98038.94636733248;;;19.005111772335397;63.907301441977566
71642;BME280;60657;50.122;14.468;2023-06-19T04:26:04;98045.86386400582;;;19.029144731822697;63.253070878156706
71642;BME280;60657;50.122;14.468;2023-06-19T04:29:24;98049.37805316063;;;19.01846341649501;63.43617914091706
71642;BME280;60657;50.122;14.468;2023-06-19T04:32:40;98041.46965832797;;;19.09857328145266;64.30403601129167
71642;BME280;60657;50.122;14.468;2023-06-19T04:35:56;98040.0167898172;;;19.14129854276341;65.2291142137789
71642;BME280;60657;50.122;14.468;2023-06-19T04:39:12;98042.2348889697;;;19.159990844586858;64.3002212558175
71642;BME280;60657;50.122;14.468;2023-06-19T04:42:27;98046.08902170415;;;19.029144731822697;64.90295262073701
71642;BME280;60657;50.122;14.468;2023-06-19T04:45:43;98048.35294145353;;;19.269474326695658;64.95445181963836
71642;BME280;60657;50.122;14.468;2023-06-19T04:49:00;98051.58641431836;;;19.531166552224008;64.32120241092547
71642;BME280;60657;50.122;14.468;2023-06-19T04:52:16;98058.98411393269;;;19.536507209887844;64.59205004959182
71642;BME280;60657;50.122;14.468;2023-06-19T04:55:32;98066.26328475017;;;19.702067597467007;63.907301441977566
71642;BME280;60657;50.122;14.468;2023-06-19T04:58:48;98070.31370402925;;;19.726100556954293;62.99557488364995
71642;BME280;60657;50.122;14.468;2023-06-19T05:02:04;98079.93822532421;;;19.79552910658427;63.53536278324559
71642;BME280;60657;50.122;14.468;2023-06-19T05:05:20;98075.19208794611;;;19.52048523689632;63.75852597848478
71642;BME280;60657;50.122;14.468;2023-06-19T05:08:36;98081.4752381254;;;19.704737926298918;62.86396581979095
71642;BME280;60657;50.122;14.468;2023-06-19T05:11:54;98079.77192099123;;;19.678034637979707;63.7547112230106
71642;BME280;60657;50.122;14.468;2023-06-19T05:15:10;98083.64752635041;;;19.544518196383606;64.22392614633402
71642;BME280;60657;50.122;14.468;2023-06-19T05:18:26;98077.71705696071;;;19.611276417181656;62.92118715190357
71642;BME280;60657;50.122;14.468;2023-06-19T05:21:42;98081.2976867589;;;19.816891737239644;62.58739604791333
71642;BME280;60657;50.122;14.468;2023-06-19T05:24:57;98072.83933531634;;;19.787518120088507;62.39093614099336
71642;BME280;60657;50.122;14.468;2023-06-19T05:28:13;98085.34878952564;;;19.811551079575793;62.80102235446708
71642;BME280;60657;50.122;14.468;2023-06-19T05:31:29;98085.93231397193;;;19.85160601205463;62.638895246814684
71642;BME280;60657;50.122;14.468;2023-06-19T05:34:49;98096.7391707153;;;19.915693904020756;62.18875410086214
71642;BME280;60657;50.122;14.468;2023-06-19T05:38:05;98095.49650204126;;;20.001144426642256;62.36232547493705
71642;BME280;60657;50.122;14.468;2023-06-19T05:41:21;98097.26125914017;;;20.001144426642256;62.16014343480583
71642;BME280;60657;50.122;14.468;2023-06-19T05:44:37;98101.311385563;;;20.04119935912108;62.30510414282445
71642;BME280;60657;50.122;14.468;2023-06-19T05:47:52;98102.59162122713;;;20.15068284122988;62.48630502784772
71642;BME280;60657;50.122;14.468;2023-06-19T05:51:08;98110.77576017927;;;19.878309300373843;62.888761730373076
71642;BME280;60657;50.122;14.468;2023-06-19T05:54:24;98115.06611395202;;;19.90501258869307;62.73617151140611
71642;BME280;60657;50.122;14.468;2023-06-19T05:57:40;98121.46461057708;;;20.02250705729763;61.277027542534526
71642;BME280;60657;50.122;14.468;2023-06-19T06:00:56;98114.2224016991;;;20.166704814221404;61.351415274280924
71642;BME280;60657;50.122;14.468;2023-06-19T06:04:12;98121.68240128603;;;20.185397116044868;59.959029526207374
71642;BME280;60657;50.122;14.468;2023-06-19T06:07:28;98125.21401544925;;;20.12664988174258;61.351415274280924
71642;BME280;60657;50.122;14.468;2023-06-19T06:10:43;98123.14356087627;;;20.204089417868317;61.35904478522927
71642;BME280;60657;50.122;14.468;2023-06-19T06:14:00;98122.77488412347;;;20.233463035019454;61.143511100938426
71642;BME280;60657;50.122;14.468;2023-06-19T06:17:15;98127.39731257505;;;20.436408026245516;60.04104676890212
71642;BME280;60657;50.122;14.468;2023-06-19T06:20:31;98134.23128430854;;;20.575265125505453;59.07591363393607
71642;BME280;60657;50.122;14.468;2023-06-19T06:23:47;98147.50958123525;;;20.593957427328903;59.47646295872434
71642;BME280;60657;50.122;14.468;2023-06-19T06:27:03;98143.07884178018;;;20.532539864194703;59.47264820325017
71642;BME280;60657;50.122;14.468;2023-06-19T06:30:21;98151.54903572069;;;20.556572823682004;59.213244831006335
71642;BME280;60657;50.122;14.468;2023-06-19T06:33:37;98145.73916538863;;;20.73014419775693;58.72114137483787
71642;BME280;60657;50.122;14.468;2023-06-19T06:36:53;98145.98814624877;;;20.877012283512627;58.8794537270161
71642;BME280;60657;50.122;14.468;2023-06-19T06:40:09;98140.90816635103;;;21.063935301747165;58.66964217593652
71642;BME280;60657;50.122;14.468;2023-06-19T06:43:25;98139.8899490494;;;21.101319905394064;58.419775692378124
71642;BME280;60657;50.122;14.468;2023-06-19T06:46:41;98139.22925617115;;;21.17074845502404;59.251392385748076
71642;BME280;60657;50.122;14.468;2023-06-19T06:49:57;98147.35125765389;;;21.077286945906764;59.43068589303425
71642;BME280;60657;50.122;14.468;2023-06-19T06:53:12;98140.40454589845;;;21.29892423895629;59.02250705729763
71642;BME280;60657;50.122;14.468;2023-06-19T06:56:28;98144.71360743415;;;21.229495689326313;58.5399404898146
71642;BME280;60657;50.122;14.468;2023-06-19T06:59:44;98147.39352073106;;;21.448462653543913;57.79606317235065
71642;BME280;60657;50.122;14.468;2023-06-19T07:03:00;98153.14426714716;;;21.405737392233164;57.90096894789044
71642;BME280;60657;50.122;14.468;2023-06-19T07:06:18;98164.44181507624;;;21.555275806820788;58.01350423437857
71642;BME280;60657;50.122;14.468;2023-06-19T07:09:34;98169.37125247161;;;21.56328679331655;58.29388876173037
71642;BME280;60657;50.122;14.468;2023-06-19T07:12:49;98177.86031181953;;;21.51522087434195;57.96391241321431
71642;BME280;60657;50.122;14.468;2023-06-19T07:16:06;98172.1767598427;;;21.448462653543913;58.06691081101701
71642;BME280;60657;50.122;14.468;2023-06-19T07:19:22;98177.51298969236;;;21.376363775082012;58.35873960479134
71642;BME280;60657;50.122;14.468;2023-06-19T07:22:38;98167.45013735024;;;21.397726405737387;58.122224765392545
71642;BME280;60657;50.122;14.468;2023-06-19T07:25:54;98163.41504029445;;;21.579308766308074;58.03639276722362
71642;BME280;60657;50.122;14.468;2023-06-19T07:29:10;98169.37125247161;;;21.5445944914931;58.06118867780576
71642;BME280;60657;50.122;14.468;2023-06-19T07:32:25;98171.56180621214;;;21.659418631265737;57.94483863584344
71642;BME280;60657;50.122;14.468;2023-06-19T07:35:41;98175.25528848311;;;21.752880140383;58.101243610284584
71642;BME280;60657;50.122;14.468;2023-06-19T07:38:57;98166.48376475296;;;21.8623636224918;58.101243610284584
71642;BME280;60657;50.122;14.468;2023-06-19T07:42:13;98166.24582745884;;;22.073319600213622;57.242923628595406
71642;BME280;60657;50.122;14.468;2023-06-19T07:45:29;98174.24377202152;;;22.121385519188223;56.88052185854887
71642;BME280;60657;50.122;14.468;2023-06-19T07:48:45;98170.098631484;;;21.99855039291981;57.32494087129015
71642;BME280;60657;50.122;14.468;2023-06-19T07:52:01;98170.63673348312;;;22.08400091554131;57.67971313038834
71642;BME280;60657;50.122;14.468;2023-06-19T07:55:18;98161.38964639098;;;22.03860532539865;57.59388113221942
71642;BME280;60657;50.122;14.468;2023-06-19T07:58:33;98164.99525678472;;;22.148088807507435;57.00259403372244
71642;BME280;60657;50.122;14.468;2023-06-19T08:01:49;98169.77839721082;;;22.196154726482035;56.75272755016403
71642;BME280;60657;50.122;14.468;2023-06-19T08:05:06;98164.38912635205;;;22.094682230868997;56.59441519798581
71642;BME280;60657;50.122;14.468;2023-06-19T08:08:23;98155.6749927034;;;22.12672617685206;56.727931639581904
71642;BME280;60657;50.122;14.468;2023-06-19T08:11:38;98166.70941019082;;;22.13206683451591;57.082703898680094
71642;BME280;60657;50.122;14.468;2023-06-19T08:14:54;98154.7488167271;;;22.043945983062486;56.989242389562826
71642;BME280;60657;50.122;14.468;2023-06-19T08:18:10;98158.81499254228;;;22.172121766994735;56.487602044708936
71642;BME280;60657;50.122;14.468;2023-06-19T08:21:25;98155.09554379141;;;22.26024261844816;56.447547112230104
71642;BME280;60657;50.122;14.468;2023-06-19T08:24:41;98147.17562293388;;;22.15609979400321;58.68490119783321
71642;BME280;60657;50.122;14.468;2023-06-19T08:27:57;98142.99824448678;;;22.204165712977797;58.866102082856486
71642;BME280;60657;50.122;14.468;2023-06-19T08:31:13;98150.89232225412;;;22.12405584802015;57.93720912489509
71642;BME280;60657;50.122;14.468;2023-06-19T08:34:28;98136.11314127505;;;22.035934996566723;58.80125123979553
71642;BME280;60657;50.122;14.468;2023-06-19T08:37:44;98140.14662225463;;;22.10803387502861;58.88136110475318
71642;BME280;60657;50.122;14.468;2023-06-19T08:41:00;98138.8933211947;;;22.16945143816281;59.12741283283742
71642;BME280;60657;50.122;14.468;2023-06-19T08:44:16;98127.2749883354;;;22.343022812237734;59.08735790035858
71642;BME280;60657;50.122;14.468;2023-06-19T08:47:32;98125.41301180137;;;22.356374456397347;59.201800564583806
71642;BME280;60657;50.122;14.468;2023-06-19T08:50:48;98132.12638135138;;;22.34035248340581;59.33722438391699
71642;BME280;60657;50.122;14.468;2023-06-19T08:54:05;98138.67597641094;;;22.265583276111997;59.629053177691304
71642;BME280;60657;50.122;14.468;2023-06-19T08:57:32;98138.38492362139;;;22.137407492179747;59.50888838025483
71642;BME280;60657;50.122;14.468;2023-06-19T09:00:48;98143.57428780051;;;22.033264667734798;60.090638590066376
71642;BME280;60657;50.122;14.468;2023-06-19T09:04:09;98148.81766944446;;;22.142748149843598;59.67483024338139
71642;BME280;60657;50.122;14.468;2023-06-19T09:07:25;98143.91187719784;;;22.367055771725035;58.034485389486534
71642;BME280;60657;50.122;14.468;2023-06-19T09:10:41;98138.5456006423;;;22.399099717708097;58.48653391317616
71642;BME280;60657;50.122;14.468;2023-06-19T09:13:57;98137.5771019331;;;22.479209582665746;58.98435950255589
71642;BME280;60657;50.122;14.468;2023-06-19T09:17:17;98148.0250276519;;;22.575341420614933;57.839932860303655
71642;BME280;60657;50.122;14.468;2023-06-19T09:20:38;98145.92760951616;;;22.727550164034483;57.61295490959029
71642;BME280;60657;50.122;14.468;2023-06-19T09:23:55;98143.0854847996;;;22.79697871366446;58.64675364309147
71642;BME280;60657;50.122;14.468;2023-06-19T09:27:19;98147.39524685912;;;22.93316548409247;57.76745250629435
71642;BME280;60657;50.122;14.468;2023-06-19T09:30:35;98138.92447624823;;;23.138780804150457;57.48134584573129
71642;BME280;60657;50.122;14.468;2023-06-19T09:33:51;98147.1278104628;;;23.133440146486606;56.59060044251164
71642;BME280;60657;50.122;14.468;2023-06-19T09:37:07;98146.46394434432;;;23.106736858167395;56.60585946440833
71642;BME280;60657;50.122;14.468;2023-06-19T09:40:24;98135.17243931231;;;23.168154421301594;56.32928969253071
71642;BME280;60657;50.122;14.468;2023-06-19T09:43:42;98143.53251488709;;;23.181506065461207;56.17479209582666
71642;BME280;60657;50.122;14.468;2023-06-19T09:46:59;98134.06125938048;;;23.419165331502256;55.64835584039063
71642;BME280;60657;50.122;14.468;2023-06-19T09:50:22;98137.91426069615;;;24.13748378728924;55.25925078202487
71642;BME280;60657;50.122;14.468;2023-06-19T09:53:38;98130.87758754003;;;24.978637369344625;53.58457312886244
71642;BME280;60657;50.122;14.468;2023-06-19T09:56:55;98114.89035724661;;;25.405889982452123;52.52407110704204
71642;BME280;60657;50.122;14.468;2023-06-19T10:00:11;98116.47789518918;;;25.897230487525746;51.789730678263524
71642;BME280;60657;50.122;14.468;2023-06-19T10:03:30;98117.45401497927;;;25.89188982986191;50.53467612726024
71642;BME280;60657;50.122;14.468;2023-06-19T10:06:46;98116.59677818703;;;26.353856717784396;50.2619211108568
71642;BME280;60657;50.122;14.468;2023-06-19T10:10:03;98113.2231073453;;;26.76775768673228;49.39024948500801
71642;BME280;60657;50.122;14.468;2023-06-19T10:13:20;98106.29123436731;;;27.49408712901503;48.37933928435187
71642;BME280;60657;50.122;14.468;2023-06-19T10:16:36;98101.13191552187;;;27.750438696879527;46.35942626077669
71642;BME280;60657;50.122;14.468;2023-06-19T10:19:52;98103.97556574731;;;27.857251850156402;46.55779354543374
71642;BME280;60657;50.122;14.468;2023-06-19T10:23:10;98117.04734776325;;;27.95338368810559;44.98039215686274
71642;BME280;60657;50.122;14.468;2023-06-19T10:26:31;98112.99563493303;;;28.35126268406195;44.48447394522011
71642;BME280;60657;50.122;14.468;2023-06-19T10:29:51;98101.14490755834;;;28.6129549095903;44.57793545433738
71642;BME280;60657;50.122;14.468;2023-06-19T10:33:08;98102.81102135574;;;28.797207598992898;44.7076371404593
71642;BME280;60657;50.122;14.468;2023-06-19T10:36:24;98107.44854745953;;;29.253833829251548;43.351491569390404
71642;BME280;60657;50.122;14.468;2023-06-19T10:39:40;98098.9435353447;;;29.264515144579235;42.99099717708095
71642;BME280;60657;50.122;14.468;2023-06-19T10:42:56;98085.45574049022;;;30.145723659113457;41.632944228274965
71642;BME280;60657;50.122;14.468;2023-06-19T10:46:12;98082.37021870879;;;30.22316319523918;41.0531013962005
71642;BME280;60657;50.122;14.468;2023-06-19T10:49:28;98063.58639679033;;;30.209811551079582;41.455558098725874
71642;BME280;60657;50.122;14.468;2023-06-19T10:52:44;98064.71490540661;;;30.030899519340807;41.299153124284736
71642;BME280;60657;50.122;14.468;2023-06-19T10:56:02;98065.32086908701;;;30.47684443427177;41.810330357824064
71642;BME280;60657;50.122;14.468;2023-06-19T10:59:18;98057.470788694;;;30.345998321507594;40.88715953307393
71642;BME280;60657;50.122;14.468;2023-06-19T11:02:33;98062.15927227338;;;30.43678950179293;39.93728542000458
71642;BME280;60657;50.122;14.468;2023-06-19T11:05:49;98054.7994044147;;;30.677119096665905;39.57869840543221
71642;BME280;60657;50.122;14.468;2023-06-19T11:09:06;98059.86572967935;;;30.404745555809868;40.42748149843595
71642;BME280;60657;50.122;14.468;2023-06-19T11:12:23;98053.80062330661;;;30.63172350652323;40.61058976119631
71642;BME280;60657;50.122;14.468;2023-06-19T11:15:39;98064.01301145974;;;30.794613565270467;41.755016403448536
71642;BME280;60657;50.122;14.468;2023-06-19T11:18:55;98047.55941458546;;;31.264591439688715;38.73754482337682
71642;BME280;60657;50.122;14.468;2023-06-19T11:22:11;98042.27920483584;;;31.57434958419165;38.08903639276723
71642;BME280;60657;50.122;14.468;2023-06-19T11:25:34;98042.97617013827;;;31.28595407034409;38.62500953688868
71642;BME280;60657;50.122;14.468;2023-06-19T11:28:51;98043.08067127322;;;30.831998168917366;39.70458533607996
71642;BME280;60657;50.122;14.468;2023-06-19T11:32:08;98034.74967991051;;;31.203173876554516;38.81002517738613
71642;BME280;60657;50.122;14.468;2023-06-19T11:35:32;98030.73121522412;;;31.747920958266576;37.8124666208896
71642;BME280;60657;50.122;14.468;2023-06-19T11:38:48;98029.63262048938;;;31.734569314106963;37.991760128175784
71642;BME280;60657;50.122;14.468;2023-06-19T11:42:05;98028.81901791655;;;31.614404516670476;37.675135423819334
71642;BME280;60657;50.122;14.468;2023-06-19T11:45:21;98028.73717883794;;;31.34737163347829;37.759060044251164
71642;BME280;60657;50.122;14.468;2023-06-19T11:48:37;98023.65053391796;;;31.443503471427476;38.39803158617533